createdAt,value
2023-01-29T00:01:32.714Z,96.07
2023-01-29T00:03:58.966Z,96.86
2023-01-29T00:06:25.354Z,96.56
2023-01-29T00:08:51.702Z,96.87
2023-01-29T00:11:18.224Z,95.86
2023-01-29T00:13:44.577Z,95.25
2023-01-29T00:16:10.848Z,95.06
2023-01-29T00:18:41.323Z,95.12
2023-01-29T00:21:16.216Z,95.66
2023-01-29T00:23:43.005Z,96.15
2023-01-29T00:26:09.855Z,95.92
2023-01-29T00:28:36.530Z,96.05
2023-01-29T00:31:09.120Z,95.54
2023-01-29T00:33:35.821Z,96.03
2023-01-29T00:36:04.602Z,95.90
2023-01-29T00:38:33.622Z,95.93
2023-01-29T00:41:11.467Z,96.05
2023-01-29T00:43:37.821Z,96.04
2023-01-29T00:46:04.260Z,96.01
2023-01-29T00:48:30.862Z,96.16
2023-01-29T00:50:57.270Z,95.96
2023-01-29T00:53:23.552Z,96.35
2023-01-29T00:55:49.859Z,96.35
2023-01-29T00:58:16.228Z,95.99
2023-01-29T01:00:42.520Z,95.88
2023-01-29T01:03:10.263Z,96.09
2023-01-29T01:05:36.594Z,96.74
2023-01-29T01:08:02.874Z,96.79
2023-01-29T01:10:32.491Z,96.76
2023-01-29T01:13:04.195Z,96.50
2023-01-29T01:15:35.263Z,96.93
2023-01-29T01:18:02.906Z,97.03
2023-01-29T01:20:31.731Z,97.13
2023-01-29T01:22:58.063Z,96.79
2023-01-29T01:25:25.243Z,97.23
2023-01-29T01:27:56.899Z,97.19
2023-01-29T01:30:23.841Z,97.04
2023-01-29T01:32:50.760Z,97.07
2023-01-29T01:35:17.211Z,97.37
2023-01-29T01:37:43.574Z,97.21
2023-01-29T01:40:17.639Z,97.12
2023-01-29T01:42:47.177Z,97.43
2023-01-29T01:45:25.382Z,97.08
2023-01-29T01:47:58.902Z,97.20
2023-01-29T01:50:39.041Z,97.33
2023-01-29T01:53:15.073Z,96.98
2023-01-29T01:55:46.060Z,96.86
2023-01-29T01:58:21.256Z,96.54
2023-01-29T02:00:47.737Z,96.32
2023-01-29T02:03:14.290Z,96.53
2023-01-29T02:05:41.403Z,96.12
2023-01-29T02:08:08.321Z,96.34
2023-01-29T02:10:52.977Z,96.49
2023-01-29T02:13:19.397Z,96.62
2023-01-29T02:15:46.570Z,96.23
2023-01-29T02:18:15.027Z,96.23
2023-01-29T02:20:48.548Z,96.29
2023-01-29T02:23:17.821Z,96.13
2023-01-29T02:26:06.572Z,96.27
2023-01-29T02:28:38.144Z,96.24
2023-01-29T02:31:29.064Z,96.34
2023-01-29T02:34:10.893Z,96.20
2023-01-29T02:36:48.767Z,95.85
2023-01-29T02:39:36.447Z,96.10
2023-01-29T02:42:08.965Z,96.18
2023-01-29T02:44:56.035Z,96.24
2023-01-29T02:47:33.116Z,95.92
2023-01-29T02:50:25.299Z,96.34
2023-01-29T02:53:02.056Z,96.30
2023-01-29T02:55:41.831Z,96.48
2023-01-29T02:58:25.630Z,96.00
2023-01-29T03:00:54.081Z,96.13
2023-01-29T03:03:32.942Z,95.78
2023-01-29T03:06:20.718Z,96.18
2023-01-29T03:08:56.592Z,96.18
2023-01-29T03:11:23.464Z,96.30
2023-01-29T03:14:11.477Z,96.46
2023-01-29T03:16:51.479Z,96.59
2023-01-29T03:19:30.683Z,96.34
2023-01-29T03:21:59.828Z,96.32
2023-01-29T03:24:31.721Z,96.45
2023-01-29T03:27:01.919Z,96.22
2023-01-29T03:29:34.914Z,96.31
2023-01-29T03:32:01.794Z,96.31
2023-01-29T03:34:31.030Z,96.66
2023-01-29T03:37:07.267Z,96.68
2023-01-29T03:39:33.868Z,97.09
2023-01-29T03:42:16.587Z,96.86
2023-01-29T03:45:05.314Z,96.97
2023-01-29T03:48:04.626Z,96.98
2023-01-29T03:50:52.677Z,97.01
2023-01-29T03:53:30.492Z,96.69
2023-01-29T03:56:15.694Z,96.92
2023-01-29T03:59:02.555Z,96.78
2023-01-29T04:01:40.214Z,97.16
2023-01-29T04:04:17.576Z,96.80
2023-01-29T04:06:47.056Z,96.80
2023-01-29T04:09:27.718Z,96.53
2023-01-29T04:12:01.526Z,96.35
2023-01-29T04:14:28.891Z,96.60
2023-01-29T04:17:00.089Z,96.39
2023-01-29T04:19:27.458Z,96.45
2023-01-29T04:22:03.251Z,96.54
2023-01-29T04:24:30.044Z,96.50
2023-01-29T04:27:44.844Z,96.28
2023-01-29T04:30:47.110Z,96.27
2023-01-29T04:33:31.731Z,96.85
2023-01-29T04:36:13.422Z,96.34
2023-01-29T04:39:01.186Z,96.64
2023-01-29T04:41:36.227Z,96.54
2023-01-29T04:44:13.574Z,96.92
2023-01-29T04:46:48.474Z,96.62
2023-01-29T04:49:29.535Z,96.71
2023-01-29T04:52:08.948Z,96.84
2023-01-29T04:54:54.999Z,96.94
2023-01-29T04:58:06.419Z,96.88
2023-01-29T05:00:44.284Z,96.73
2023-01-29T05:03:13.488Z,96.59
2023-01-29T05:05:42.734Z,96.78
2023-01-29T05:08:13.445Z,96.90
2023-01-29T05:10:40.354Z,96.55
2023-01-29T05:13:10.968Z,96.16
2023-01-29T05:15:41.001Z,95.85
2023-01-29T05:18:08.382Z,96.41
2023-01-29T05:20:38.606Z,96.36
2023-01-29T05:23:08.997Z,96.27
2023-01-29T05:25:35.464Z,96.09
2023-01-29T05:28:01.784Z,96.28
2023-01-29T05:30:28.021Z,96.20
2023-01-29T05:32:54.346Z,95.98
2023-01-29T05:35:20.608Z,96.07
2023-01-29T05:37:47.084Z,96.40
2023-01-29T05:40:13.405Z,96.66
2023-01-29T05:42:39.778Z,96.37
2023-01-29T05:45:06.448Z,96.13
2023-01-29T05:47:32.863Z,96.10
2023-01-29T05:49:59.186Z,95.59
2023-01-29T05:52:25.541Z,95.81
2023-01-29T05:54:51.829Z,95.90
2023-01-29T05:57:18.187Z,95.71
2023-01-29T05:59:44.433Z,95.78
2023-01-29T06:02:11.001Z,95.77
2023-01-29T06:04:37.408Z,95.74
2023-01-29T06:07:03.727Z,95.92
2023-01-29T06:09:30.262Z,95.18
2023-01-29T06:11:56.666Z,95.40
2023-01-29T06:14:22.907Z,95.77
2023-01-29T06:16:49.411Z,95.89
2023-01-29T06:19:15.747Z,95.68
2023-01-29T06:21:42.097Z,94.82
2023-01-29T06:24:08.779Z,95.25
2023-01-29T06:26:35.160Z,95.75
2023-01-29T06:29:01.398Z,95.59
2023-01-29T06:31:38.174Z,95.68
2023-01-29T06:34:05.364Z,95.71
2023-01-29T06:36:31.753Z,95.46
2023-01-29T06:38:58.057Z,94.83
2023-01-29T06:41:24.477Z,94.99
2023-01-29T06:43:51.356Z,95.30
2023-01-29T06:46:17.727Z,94.48
2023-01-29T06:48:44.067Z,94.27
2023-01-29T06:51:11.028Z,95.33
2023-01-29T06:53:38.736Z,95.48
2023-01-29T06:56:06.289Z,95.03
2023-01-29T06:58:33.588Z,94.81
2023-01-29T07:01:04.911Z,95.27
2023-01-29T07:03:31.437Z,94.90
2023-01-29T07:05:57.953Z,95.43
2023-01-29T07:08:24.364Z,95.16
2023-01-29T07:10:50.672Z,94.40
2023-01-29T07:13:17.056Z,95.05
2023-01-29T07:15:43.454Z,94.99
2023-01-29T07:18:09.911Z,95.03
2023-01-29T07:20:36.246Z,94.31
2023-01-29T07:23:02.555Z,94.59
2023-01-29T07:25:28.928Z,94.50
2023-01-29T07:27:55.177Z,94.66
2023-01-29T07:30:22.010Z,94.55
2023-01-29T07:32:48.383Z,94.47
2023-01-29T07:35:14.664Z,93.98
2023-01-29T07:37:41.056Z,93.26
2023-01-29T07:40:07.615Z,92.80
2023-01-29T07:42:33.926Z,93.44
2023-01-29T07:45:00.298Z,93.37
2023-01-29T07:47:26.554Z,93.08
2023-01-29T07:49:52.889Z,92.58
2023-01-29T07:52:21.920Z,92.89
2023-01-29T07:54:48.576Z,92.92
2023-01-29T07:57:14.897Z,92.34
2023-01-29T07:59:41.257Z,93.01
2023-01-29T08:02:08.916Z,93.05
2023-01-29T08:04:35.252Z,92.15
2023-01-29T08:07:01.650Z,92.89
2023-01-29T08:09:27.882Z,92.49
2023-01-29T08:11:54.373Z,92.28
2023-01-29T08:14:20.745Z,91.97
2023-01-29T08:16:47.031Z,92.42
2023-01-29T08:19:13.447Z,92.21
2023-01-29T08:21:39.721Z,92.41
2023-01-29T08:24:06.369Z,92.04
2023-01-29T08:26:33.140Z,92.05
2023-01-29T08:28:59.536Z,92.43
2023-01-29T08:31:25.853Z,92.71
2023-01-29T08:33:54.066Z,92.46
2023-01-29T08:36:20.447Z,93.11
2023-01-29T08:38:46.693Z,93.48
2023-01-29T08:41:13.103Z,93.19
2023-01-29T08:43:39.384Z,93.46
2023-01-29T08:46:06.614Z,92.82
2023-01-29T08:48:33.284Z,93.55
2023-01-29T08:51:01.358Z,93.00
2023-01-29T08:53:27.872Z,92.04
2023-01-29T08:55:54.441Z,92.17
2023-01-29T08:58:20.690Z,92.67
2023-01-29T09:00:47.128Z,92.05
2023-01-29T09:03:13.987Z,91.66
2023-01-29T09:05:41.189Z,91.79
2023-01-29T09:08:08.988Z,91.57
2023-01-29T09:10:35.926Z,90.61
2023-01-29T09:13:02.326Z,91.22
2023-01-29T09:15:28.800Z,90.24
2023-01-29T09:17:55.167Z,90.45
2023-01-29T09:20:21.582Z,90.33
2023-01-29T09:22:48.108Z,89.95
2023-01-29T09:25:15.153Z,90.54
2023-01-29T09:27:44.787Z,90.20
2023-01-29T09:30:11.763Z,90.00
2023-01-29T09:32:52.598Z,90.03
2023-01-29T09:35:19.825Z,88.49
2023-01-29T09:37:50.202Z,89.47
2023-01-29T09:40:26.648Z,88.72
2023-01-29T09:43:00.833Z,88.24
2023-01-29T09:45:29.208Z,89.63
2023-01-29T09:48:02.059Z,87.64
2023-01-29T09:50:39.428Z,88.27
2023-01-29T09:53:11.486Z,88.60
2023-01-29T09:55:45.567Z,88.37
2023-01-29T09:58:19.236Z,88.83
2023-01-29T10:00:57.585Z,87.38
2023-01-29T10:03:40.886Z,88.85
2023-01-29T10:06:12.936Z,87.94
2023-01-29T10:09:01.129Z,88.09
2023-01-29T10:11:50.515Z,87.21
2023-01-29T10:14:22.535Z,87.67
2023-01-29T10:17:24.035Z,87.28
2023-01-29T10:20:34.367Z,87.94
2023-01-29T10:23:16.813Z,87.78
2023-01-29T10:25:45.584Z,87.42
2023-01-29T10:28:24.388Z,85.99
2023-01-29T10:30:56.195Z,86.79
2023-01-29T10:33:48.992Z,86.61
2023-01-29T10:36:26.215Z,86.25
2023-01-29T10:38:52.644Z,87.05
2023-01-29T10:41:45.217Z,86.85
2023-01-29T10:44:45.515Z,86.20
2023-01-29T10:47:22.050Z,86.42
2023-01-29T10:50:08.895Z,86.54
2023-01-29T10:52:46.174Z,85.92
2023-01-29T10:55:44.564Z,86.14
2023-01-29T10:58:33.995Z,86.33
2023-01-29T11:01:01.070Z,86.16
2023-01-29T11:03:30.449Z,86.72
2023-01-29T11:06:09.111Z,86.34
2023-01-29T11:08:45.909Z,86.56
2023-01-29T11:11:18.013Z,85.85
2023-01-29T11:13:57.179Z,86.19
2023-01-29T11:16:23.751Z,86.51
2023-01-29T11:18:58.667Z,86.76
2023-01-29T11:21:26.751Z,86.48
2023-01-29T11:24:13.959Z,86.57
2023-01-29T11:26:42.416Z,86.66
2023-01-29T11:29:26.945Z,85.86
2023-01-29T11:31:53.630Z,86.14
2023-01-29T11:34:24.527Z,85.42
2023-01-29T11:37:02.863Z,86.74
2023-01-29T11:39:31.499Z,87.32
2023-01-29T11:42:01.627Z,86.59
2023-01-29T11:44:41.441Z,86.89
2023-01-29T11:47:28.965Z,87.29
2023-01-29T11:49:57.976Z,87.75
2023-01-29T11:52:39.181Z,87.67
2023-01-29T11:55:14.097Z,87.72
2023-01-29T11:57:48.481Z,88.49
2023-01-29T12:00:26.099Z,88.15
2023-01-29T12:02:56.846Z,88.83
2023-01-29T12:05:25.676Z,88.32
2023-01-29T12:07:55.889Z,88.60
2023-01-29T12:10:37.058Z,88.77
2023-01-29T12:13:09.260Z,89.39
2023-01-29T12:15:37.283Z,90.20
2023-01-29T12:18:12.747Z,89.57
2023-01-29T12:20:52.011Z,90.29
2023-01-29T12:23:43.069Z,89.85
2023-01-29T12:26:14.852Z,90.32
2023-01-29T12:28:59.840Z,90.38
2023-01-29T12:31:45.032Z,90.88
2023-01-29T12:34:22.634Z,90.89
2023-01-29T12:37:00.942Z,91.46
2023-01-29T12:39:27.435Z,91.69
2023-01-29T12:42:00.991Z,91.51
2023-01-29T12:44:51.883Z,91.09
2023-01-29T12:47:26.607Z,91.37
2023-01-29T12:50:00.445Z,91.75
2023-01-29T12:52:42.408Z,91.93
2023-01-29T12:55:20.960Z,92.26
2023-01-29T12:57:56.034Z,93.19
2023-01-29T13:00:26.448Z,92.56
2023-01-29T13:03:07.709Z,92.78
2023-01-29T13:05:44.239Z,93.49
2023-01-29T13:08:35.752Z,94.06
2023-01-29T13:11:08.123Z,93.80
2023-01-29T13:13:41.260Z,93.98
2023-01-29T13:16:13.994Z,95.15
2023-01-29T13:18:45.850Z,94.92
2023-01-29T13:21:15.983Z,95.29
2023-01-29T13:23:48.603Z,96.11
2023-01-29T13:26:19.047Z,95.99
2023-01-29T13:28:46.557Z,96.18
2023-01-29T13:31:34.229Z,96.23
2023-01-29T13:34:24.790Z,96.17
2023-01-29T13:36:54.898Z,96.43
2023-01-29T13:39:34.277Z,96.02
2023-01-29T13:42:03.744Z,96.73
2023-01-29T13:44:37.587Z,96.42
2023-01-29T13:47:07.538Z,96.51
2023-01-29T13:49:38.962Z,96.60
2023-01-29T13:52:23.997Z,95.98
2023-01-29T13:54:55.519Z,96.02
2023-01-29T13:57:36.857Z,95.61
2023-01-29T14:00:05.381Z,95.29
2023-01-29T14:02:32.107Z,95.34
2023-01-29T14:05:29.551Z,94.27
2023-01-29T14:08:03.287Z,95.18
2023-01-29T14:10:31.647Z,95.45
2023-01-29T14:13:04.077Z,93.53
2023-01-29T14:15:33.312Z,93.85
2023-01-29T14:18:08.585Z,94.06
2023-01-29T14:20:48.750Z,94.02
2023-01-29T14:23:26.534Z,93.87
2023-01-29T14:25:53.159Z,93.54
2023-01-29T14:28:24.192Z,93.61
2023-01-29T14:30:51.665Z,93.04
2023-01-29T14:33:42.360Z,92.51
2023-01-29T14:36:13.169Z,93.04
2023-01-29T14:38:45.927Z,92.85
2023-01-29T14:41:24.589Z,92.29
2023-01-29T14:43:51.037Z,92.92
2023-01-29T14:46:44.329Z,92.88
2023-01-29T14:49:10.882Z,91.99
2023-01-29T14:51:41.688Z,92.78
2023-01-29T14:54:27.945Z,92.98
2023-01-29T14:57:04.013Z,92.82
2023-01-29T14:59:35.839Z,92.77
2023-01-29T15:02:15.599Z,92.75
2023-01-29T15:04:49.854Z,92.76
2023-01-29T15:07:32.145Z,91.95
2023-01-29T15:10:22.765Z,92.96
2023-01-29T15:12:56.936Z,92.73
2023-01-29T15:16:01.244Z,93.00
2023-01-29T15:18:42.480Z,92.27
2023-01-29T15:21:17.485Z,91.87
2023-01-29T15:23:44.718Z,92.82
2023-01-29T15:26:17.163Z,92.05
2023-01-29T15:28:47.218Z,91.78
2023-01-29T15:31:18.398Z,91.49
2023-01-29T15:33:48.051Z,92.14
2023-01-29T15:36:21.891Z,92.15
2023-01-29T15:38:48.518Z,92.02
2023-01-29T15:41:20.403Z,91.43
2023-01-29T15:43:57.174Z,92.18
2023-01-29T15:46:39.939Z,92.11
2023-01-29T15:49:15.904Z,91.42
2023-01-29T15:51:42.771Z,91.50
2023-01-29T15:54:15.924Z,91.88
2023-01-29T15:56:51.739Z,92.69
2023-01-29T15:59:22.882Z,91.92
2023-01-29T16:01:49.301Z,92.11
2023-01-29T16:04:24.288Z,92.01
2023-01-29T16:06:52.751Z,91.89
2023-01-29T16:09:23.213Z,92.60
2023-01-29T16:11:50.529Z,91.57
2023-01-29T16:14:20.498Z,91.61
2023-01-29T16:16:47.350Z,91.78
2023-01-29T16:19:28.389Z,91.92
2023-01-29T16:22:01.628Z,92.24
2023-01-29T16:24:30.620Z,93.25
2023-01-29T16:27:03.866Z,92.87
2023-01-29T16:29:32.850Z,93.36
2023-01-29T16:32:01.036Z,93.45
2023-01-29T16:34:37.793Z,93.75
2023-01-29T16:37:26.153Z,94.04
2023-01-29T16:39:52.848Z,94.60
2023-01-29T16:42:21.226Z,95.12
2023-01-29T16:45:27.838Z,95.31
2023-01-29T16:48:02.337Z,96.38
2023-01-29T16:50:40.573Z,96.79
2023-01-29T16:53:18.619Z,96.86
2023-01-29T16:55:47.755Z,97.74
2023-01-29T16:58:21.408Z,96.98
2023-01-29T17:00:53.060Z,97.87
2023-01-29T17:03:19.990Z,98.10
2023-01-29T17:05:46.950Z,98.25
2023-01-29T17:08:30.299Z,98.40
2023-01-29T17:10:56.905Z,98.95
2023-01-29T17:13:41.260Z,99.45
2023-01-29T17:16:27.055Z,100.00
2023-01-29T17:18:53.633Z,100.00
2023-01-29T17:21:20.137Z,100.00
2023-01-29T17:23:46.543Z,100.00
2023-01-29T17:26:14.284Z,100.00
2023-01-29T17:28:41.543Z,99.82
2023-01-29T17:31:08.313Z,100.00
2023-01-29T17:33:37.349Z,99.72
2023-01-29T17:36:03.975Z,100.00
2023-01-29T17:38:30.321Z,100.00
2023-01-29T17:40:56.579Z,100.00
2023-01-29T17:43:22.947Z,100.00
2023-01-29T17:45:49.429Z,100.00
2023-01-29T17:48:27.177Z,100.00
2023-01-29T17:50:56.287Z,100.00
2023-01-29T17:53:24.853Z,100.00
2023-01-29T17:55:52.811Z,100.00
2023-01-29T17:58:20.306Z,100.00
2023-01-29T18:00:48.045Z,100.00
2023-01-29T18:03:15.373Z,100.00
2023-01-29T18:05:43.628Z,100.00
2023-01-29T18:08:17.292Z,100.00
2023-01-29T18:10:44.587Z,100.00
2023-01-29T18:13:11.109Z,100.00
2023-01-29T18:15:37.709Z,100.00
2023-01-29T18:18:04.891Z,100.00
2023-01-29T18:20:32.143Z,100.00
2023-01-29T18:22:58.489Z,100.00
2023-01-29T18:25:25.758Z,100.00
2023-01-29T18:27:52.206Z,100.00
2023-01-29T18:30:18.630Z,100.00
2023-01-29T18:32:44.901Z,100.00
2023-01-29T18:35:11.328Z,100.00
2023-01-29T18:37:37.605Z,100.00
2023-01-29T18:40:04.320Z,100.00
2023-01-29T18:42:31.863Z,100.00
2023-01-29T18:44:58.213Z,100.00
2023-01-29T18:47:24.545Z,100.00
2023-01-29T18:49:50.913Z,100.00
2023-01-29T18:52:17.737Z,100.00
2023-01-29T18:54:44.149Z,100.00
2023-01-29T18:57:14.153Z,100.00
2023-01-29T18:59:56.834Z,100.00
2023-01-29T19:02:23.436Z,100.00
2023-01-29T19:04:49.908Z,100.00
2023-01-29T19:07:16.266Z,100.00
2023-01-29T19:09:42.979Z,100.00
2023-01-29T19:12:09.316Z,100.00
2023-01-29T19:14:35.564Z,100.00
2023-01-29T19:17:01.956Z,100.00
2023-01-29T19:19:28.599Z,100.00
2023-01-29T19:21:55.146Z,100.00
2023-01-29T19:24:21.723Z,100.00
2023-01-29T19:26:48.725Z,100.00
2023-01-29T19:29:15.603Z,100.00
2023-01-29T19:31:42.398Z,100.00
2023-01-29T19:34:08.845Z,100.00
2023-01-29T19:36:36.307Z,100.00
2023-01-29T19:39:03.129Z,100.00
2023-01-29T19:41:29.516Z,100.00
2023-01-29T19:43:55.874Z,100.00
2023-01-29T19:46:22.178Z,100.00
2023-01-29T19:48:48.580Z,99.90
2023-01-29T19:51:15.029Z,99.73
2023-01-29T19:53:42.432Z,100.00
2023-01-29T19:56:12.453Z,99.92
2023-01-29T19:58:39.103Z,100.00
2023-01-29T20:01:12.322Z,99.78
2023-01-29T20:03:38.760Z,99.23
2023-01-29T20:06:06.215Z,99.63
2023-01-29T20:08:33.429Z,99.73
2023-01-29T20:10:59.776Z,99.71
2023-01-29T20:13:26.029Z,100.00
2023-01-29T20:15:53.222Z,100.00
2023-01-29T20:18:19.840Z,100.00
2023-01-29T20:20:48.481Z,100.00
2023-01-29T20:23:27.999Z,100.00
2023-01-29T20:26:02.529Z,100.00
2023-01-29T20:28:28.939Z,100.00
2023-01-29T20:30:55.427Z,100.00
2023-01-29T20:33:22.289Z,100.00
2023-01-29T20:36:00.042Z,100.00
2023-01-29T20:38:27.100Z,100.00
2023-01-29T20:40:53.488Z,100.00
2023-01-29T20:43:19.842Z,100.00
2023-01-29T20:45:46.270Z,100.00
2023-01-29T20:48:12.776Z,100.00
2023-01-29T20:50:39.380Z,100.00
2023-01-29T20:53:05.682Z,100.00
2023-01-29T20:55:32.105Z,100.00
2023-01-29T20:58:06.470Z,100.00
2023-01-29T21:00:33.432Z,100.00
2023-01-29T21:02:59.952Z,100.00
2023-01-29T21:05:26.395Z,100.00
2023-01-29T21:07:52.749Z,100.00
2023-01-29T21:10:19.259Z,100.00
2023-01-29T21:12:45.825Z,100.00
2023-01-29T21:15:12.159Z,100.00
2023-01-29T21:17:38.719Z,100.00
2023-01-29T21:20:05.554Z,100.00
2023-01-29T21:22:31.884Z,100.00
2023-01-29T21:24:58.151Z,100.00
2023-01-29T21:27:25.220Z,100.00
2023-01-29T21:29:51.606Z,100.00
2023-01-29T21:32:17.972Z,100.00
2023-01-29T21:34:44.278Z,100.00
2023-01-29T21:37:10.672Z,100.00
2023-01-29T21:39:37.102Z,100.00
2023-01-29T21:42:03.679Z,100.00
2023-01-29T21:44:30.646Z,100.00
2023-01-29T21:46:57.040Z,100.00
2023-01-29T21:49:23.737Z,100.00
2023-01-29T21:51:50.232Z,100.00
2023-01-29T21:54:16.621Z,100.00
2023-01-29T21:56:42.940Z,100.00
2023-01-29T21:59:09.697Z,100.00
2023-01-29T22:01:38.678Z,100.00
2023-01-29T22:04:05.501Z,100.00
2023-01-29T22:06:31.848Z,100.00
2023-01-29T22:08:58.169Z,100.00
2023-01-29T22:11:24.530Z,100.00
2023-01-29T22:13:50.780Z,100.00
2023-01-29T22:16:17.137Z,100.00
2023-01-29T22:18:43.499Z,100.00
2023-01-29T22:21:09.777Z,100.00
2023-01-29T22:23:36.093Z,100.00
2023-01-29T22:26:03.331Z,100.00
2023-01-29T22:28:29.696Z,100.00
2023-01-29T22:31:00.351Z,100.00
2023-01-29T22:33:26.688Z,100.00
2023-01-29T22:35:53.929Z,100.00
2023-01-29T22:38:20.321Z,100.00
2023-01-29T22:40:51.114Z,100.00
2023-01-29T22:43:17.690Z,100.00
2023-01-29T22:45:44.077Z,100.00
2023-01-29T22:48:10.855Z,100.00
2023-01-29T22:50:38.474Z,100.00
2023-01-29T22:53:05.751Z,100.00
2023-01-29T22:55:32.992Z,100.00
2023-01-29T22:57:59.820Z,100.00
2023-01-29T23:00:26.337Z,100.00
2023-01-29T23:02:52.709Z,100.00
2023-01-29T23:05:18.954Z,100.00
2023-01-29T23:07:45.669Z,100.00
2023-01-29T23:10:15.820Z,100.00
2023-01-29T23:12:42.415Z,100.00
2023-01-29T23:15:09.094Z,100.00
2023-01-29T23:17:35.439Z,100.00
2023-01-29T23:20:01.736Z,100.00
2023-01-29T23:22:28.152Z,100.00
2023-01-29T23:24:54.504Z,100.00
2023-01-29T23:27:20.801Z,100.00
2023-01-29T23:29:48.362Z,100.00
2023-01-29T23:32:20.528Z,100.00
2023-01-29T23:34:47.357Z,100.00
2023-01-29T23:37:13.912Z,100.00
2023-01-29T23:39:40.304Z,100.00
2023-01-29T23:42:06.588Z,100.00
2023-01-29T23:44:32.956Z,100.00
2023-01-29T23:46:59.304Z,100.00
2023-01-29T23:49:25.695Z,100.00
2023-01-29T23:51:52.037Z,100.00
2023-01-29T23:54:18.470Z,100.00
2023-01-29T23:56:45.180Z,100.00
2023-01-29T23:59:12.284Z,100.00
